sensor_id;sensor_type;location;lat;lon;timestamp;pressure;altitude;pressure_sealevel;temperature;humidity
39455;BME280;25155;41.890;23.446;2023-06-24T00:00:01;92123.13;;;20.69;66.57
39455;BME280;25155;41.890;23.446;2023-06-24T00:02:33;92115.81;;;20.66;66.67
39455;BME280;25155;41.890;23.446;2023-06-24T00:05:02;92123.78;;;20.66;66.78
39455;BME280;25155;41.890;23.446;2023-06-24T00:07:32;92119.88;;;20.63;66.69
39455;BME280;25155;41.890;23.446;2023-06-24T00:10:02;92117.38;;;20.58;66.96
39455;BME280;25155;41.890;23.446;2023-06-24T00:12:30;92115.97;;;20.61;66.91
39455;BME280;25155;41.890;23.446;2023-06-24T00:14:59;92120.84;;;20.50;68.58
39455;BME280;25155;41.890;23.446;2023-06-24T00:17:27;92117.97;;;20.34;69.23
39455;BME280;25155;41.890;23.446;2023-06-24T00:19:54;92117.34;;;20.28;68.73
39455;BME280;25155;41.890;23.446;2023-06-24T00:22:22;92108.66;;;20.28;68.32
39455;BME280;25155;41.890;23.446;2023-06-24T00:24:49;92110.53;;;20.27;68.23
39455;BME280;25155;41.890;23.446;2023-06-24T00:27:17;92107.72;;;20.24;68.54
39455;BME280;25155;41.890;23.446;2023-06-24T00:29:45;92108.81;;;20.23;67.83
39455;BME280;25155;41.890;23.446;2023-06-24T00:32:13;92116.63;;;20.10;69.96
39455;BME280;25155;41.890;23.446;2023-06-24T00:34:41;92107.47;;;20.08;69.86
39455;BME280;25155;41.890;23.446;2023-06-24T00:37:09;92106.69;;;20.07;69.33
39455;BME280;25155;41.890;23.446;2023-06-24T00:39:37;92108.56;;;20.07;69.67
39455;BME280;25155;41.890;23.446;2023-06-24T00:42:05;92107.03;;;20.06;68.90
39455;BME280;25155;41.890;23.446;2023-06-24T00:44:32;92114.16;;;20.05;68.95
39455;BME280;25155;41.890;23.446;2023-06-24T00:47:00;92116.03;;;20.05;68.83
39455;BME280;25155;41.890;23.446;2023-06-24T00:49:29;92109.50;;;20.02;68.91
39455;BME280;25155;41.890;23.446;2023-06-24T00:51:56;92105.00;;;19.94;69.37
39455;BME280;25155;41.890;23.446;2023-06-24T00:54:26;92096.66;;;19.83;69.14
39455;BME280;25155;41.890;23.446;2023-06-24T00:56:57;92093.84;;;19.80;69.12
39455;BME280;25155;41.890;23.446;2023-06-24T00:59:28;92098.22;;;19.76;68.71
39455;BME280;25155;41.890;23.446;2023-06-24T01:01:57;92098.50;;;19.74;68.28
39455;BME280;25155;41.890;23.446;2023-06-24T01:04:29;92084.66;;;19.68;68.11
39455;BME280;25155;41.890;23.446;2023-06-24T01:06:57;92085.28;;;19.65;68.44
39455;BME280;25155;41.890;23.446;2023-06-24T01:09:24;92082.97;;;19.64;68.03
39455;BME280;25155;41.890;23.446;2023-06-24T01:11:52;92085.59;;;19.64;68.51
39455;BME280;25155;41.890;23.446;2023-06-24T01:14:20;92081.38;;;19.63;67.99
39455;BME280;25155;41.890;23.446;2023-06-24T01:16:56;92083.44;;;19.57;68.55
39455;BME280;25155;41.890;23.446;2023-06-24T01:22:43;92092.78;;;19.46;68.20
39455;BME280;25155;41.890;23.446;2023-06-24T01:28:11;92086.91;;;19.14;69.43
39455;BME280;25155;41.890;23.446;2023-06-24T01:31:00;92077.09;;;19.32;69.26
39455;BME280;25155;41.890;23.446;2023-06-24T01:33:39;92079.88;;;19.35;69.36
39455;BME280;25155;41.890;23.446;2023-06-24T01:36:11;92088.13;;;19.34;70.11
39455;BME280;25155;41.890;23.446;2023-06-24T01:38:46;92088.28;;;19.29;72.24
39455;BME280;25155;41.890;23.446;2023-06-24T01:41:20;92083.31;;;19.01;71.50
39455;BME280;25155;41.890;23.446;2023-06-24T01:43:50;92083.94;;;18.89;71.74
39455;BME280;25155;41.890;23.446;2023-06-24T01:46:21;92083.63;;;18.91;71.65
39455;BME280;25155;41.890;23.446;2023-06-24T01:48:53;92087.84;;;18.92;71.39
39455;BME280;25155;41.890;23.446;2023-06-24T01:51:23;92087.38;;;18.98;70.95
39455;BME280;25155;41.890;23.446;2023-06-24T01:53:53;92093.13;;;19.01;71.18
39455;BME280;25155;41.890;23.446;2023-06-24T01:56:23;92090.47;;;18.92;72.74
39455;BME280;25155;41.890;23.446;2023-06-24T01:58:54;92081.59;;;18.88;72.57
39455;BME280;25155;41.890;23.446;2023-06-24T02:01:24;92085.50;;;18.90;71.90
39455;BME280;25155;41.890;23.446;2023-06-24T02:03:54;92085.66;;;18.94;71.99
39455;BME280;25155;41.890;23.446;2023-06-24T02:06:24;92086.88;;;18.96;71.32
39455;BME280;25155;41.890;23.446;2023-06-24T02:08:54;92090.78;;;18.99;71.17
39455;BME280;25155;41.890;23.446;2023-06-24T02:11:25;92087.06;;;19.00;71.31
39455;BME280;25155;41.890;23.446;2023-06-24T02:13:54;92086.41;;;19.03;70.90
39455;BME280;25155;41.890;23.446;2023-06-24T02:16:23;92091.41;;;19.05;70.78
39455;BME280;25155;41.890;23.446;2023-06-24T02:18:53;92094.03;;;19.05;70.57
39455;BME280;25155;41.890;23.446;2023-06-24T02:21:23;92103.03;;;18.95;72.14
39455;BME280;25155;41.890;23.446;2023-06-24T02:23:52;92105.84;;;18.90;71.21
39455;BME280;25155;41.890;23.446;2023-06-24T02:26:20;92114.56;;;18.90;70.73
39455;BME280;25155;41.890;23.446;2023-06-24T02:28:49;92108.34;;;18.86;70.46
39455;BME280;25155;41.890;23.446;2023-06-24T02:31:17;92112.53;;;18.87;70.36
39455;BME280;25155;41.890;23.446;2023-06-24T02:33:45;92115.19;;;18.87;70.49
39455;BME280;25155;41.890;23.446;2023-06-24T02:36:14;92115.78;;;18.84;70.73
39455;BME280;25155;41.890;23.446;2023-06-24T02:38:41;92115.91;;;18.79;70.63
39455;BME280;25155;41.890;23.446;2023-06-24T02:41:08;92126.94;;;18.81;71.32
39455;BME280;25155;41.890;23.446;2023-06-24T02:43:35;92130.81;;;18.75;71.36
39455;BME280;25155;41.890;23.446;2023-06-24T02:46:03;92129.28;;;18.74;71.25
39455;BME280;25155;41.890;23.446;2023-06-24T02:48:34;92125.06;;;18.73;70.93
39455;BME280;25155;41.890;23.446;2023-06-24T02:51:05;92124.59;;;18.71;71.04
39455;BME280;25155;41.890;23.446;2023-06-24T02:53:35;92120.69;;;18.68;70.90
39455;BME280;25155;41.890;23.446;2023-06-24T02:56:04;92127.25;;;18.71;70.82
39455;BME280;25155;41.890;23.446;2023-06-24T02:58:32;92116.69;;;18.71;70.89
39455;BME280;25155;41.890;23.446;2023-06-24T03:01:00;92118.06;;;18.68;70.41
39455;BME280;25155;41.890;23.446;2023-06-24T03:03:28;92112.00;;;18.68;70.48
39455;BME280;25155;41.890;23.446;2023-06-24T03:05:57;92108.59;;;18.67;70.51
39455;BME280;25155;41.890;23.446;2023-06-24T03:08:25;92116.81;;;18.66;70.20
39455;BME280;25155;41.890;23.446;2023-06-24T03:10:56;92106.06;;;18.53;72.60
39455;BME280;25155;41.890;23.446;2023-06-24T03:13:23;92123.94;;;18.48;72.75
39455;BME280;25155;41.890;23.446;2023-06-24T03:15:50;92130.09;;;18.34;73.18
39455;BME280;25155;41.890;23.446;2023-06-24T03:18:18;92123.81;;;18.21;73.48
39455;BME280;25155;41.890;23.446;2023-06-24T03:20:45;92122.16;;;18.25;73.56
39455;BME280;25155;41.890;23.446;2023-06-24T03:23:13;92126.03;;;18.28;73.19
39455;BME280;25155;41.890;23.446;2023-06-24T03:25:40;92129.94;;;18.31;73.14
39455;BME280;25155;41.890;23.446;2023-06-24T03:28:09;92135.69;;;18.33;72.67
39455;BME280;25155;41.890;23.446;2023-06-24T03:30:36;92133.81;;;18.33;72.35
39455;BME280;25155;41.890;23.446;2023-06-24T03:33:03;92129.94;;;18.31;73.58
39455;BME280;25155;41.890;23.446;2023-06-24T03:35:32;92128.97;;;18.26;74.02
39455;BME280;25155;41.890;23.446;2023-06-24T03:37:59;92129.94;;;18.31;73.38
39455;BME280;25155;41.890;23.446;2023-06-24T03:40:27;92136.91;;;18.35;73.32
39455;BME280;25155;41.890;23.446;2023-06-24T03:42:54;92128.69;;;18.37;73.02
39455;BME280;25155;41.890;23.446;2023-06-24T03:45:23;92131.03;;;18.38;72.38
39455;BME280;25155;41.890;23.446;2023-06-24T03:47:50;92125.13;;;18.41;72.45
39455;BME280;25155;41.890;23.446;2023-06-24T03:50:18;92131.22;;;18.42;72.32
39455;BME280;25155;41.890;23.446;2023-06-24T03:52:45;92135.09;;;18.44;71.83
39455;BME280;25155;41.890;23.446;2023-06-24T03:55:12;92126.88;;;18.46;71.86
39455;BME280;25155;41.890;23.446;2023-06-24T03:57:39;92126.88;;;18.46;71.85
39455;BME280;25155;41.890;23.446;2023-06-24T04:00:07;92130.28;;;18.47;71.94
39455;BME280;25155;41.890;23.446;2023-06-24T04:02:43;92126.72;;;18.42;71.93
39455;BME280;25155;41.890;23.446;2023-06-24T04:05:10;92134.78;;;18.46;71.64
39455;BME280;25155;41.890;23.446;2023-06-24T04:07:38;92141.34;;;18.49;71.80
39455;BME280;25155;41.890;23.446;2023-06-24T04:10:06;92147.84;;;18.51;71.73
39455;BME280;25155;41.890;23.446;2023-06-24T04:12:34;92142.88;;;18.50;72.17
39455;BME280;25155;41.890;23.446;2023-06-24T04:15:02;92143.66;;;18.50;72.41
39455;BME280;25155;41.890;23.446;2023-06-24T04:17:30;92139.31;;;18.46;72.55
39455;BME280;25155;41.890;23.446;2023-06-24T04:19:59;92145.22;;;18.51;72.89
39455;BME280;25155;41.890;23.446;2023-06-24T04:22:28;92145.69;;;18.53;72.74
39455;BME280;25155;41.890;23.446;2023-06-24T04:24:55;92143.22;;;18.57;72.93
39455;BME280;25155;41.890;23.446;2023-06-24T04:27:22;92147.09;;;18.59;72.43
39455;BME280;25155;41.890;23.446;2023-06-24T04:29:50;92145.41;;;18.63;72.64
39455;BME280;25155;41.890;23.446;2023-06-24T04:32:17;92142.13;;;18.67;73.09
39455;BME280;25155;41.890;23.446;2023-06-24T04:34:44;92147.44;;;18.67;73.48
39455;BME280;25155;41.890;23.446;2023-06-24T04:37:14;92142.78;;;18.63;74.21
39455;BME280;25155;41.890;23.446;2023-06-24T04:39:43;92132.06;;;18.69;73.90
39455;BME280;25155;41.890;23.446;2023-06-24T04:42:11;92140.00;;;18.69;74.95
39455;BME280;25155;41.890;23.446;2023-06-24T04:44:40;92135.63;;;18.73;75.00
39455;BME280;25155;41.890;23.446;2023-06-24T04:47:07;92130.22;;;18.78;74.51
39455;BME280;25155;41.890;23.446;2023-06-24T04:49:35;92139.09;;;18.82;74.86
39455;BME280;25155;41.890;23.446;2023-06-24T04:52:02;92135.88;;;18.85;75.19
39455;BME280;25155;41.890;23.446;2023-06-24T04:54:31;92136.31;;;18.87;75.11
39455;BME280;25155;41.890;23.446;2023-06-24T04:56:58;92145.19;;;18.91;74.81
39455;BME280;25155;41.890;23.446;2023-06-24T04:59:25;92135.09;;;18.93;75.11
39455;BME280;25155;41.890;23.446;2023-06-24T05:01:53;92136.03;;;18.97;75.03
39455;BME280;25155;41.890;23.446;2023-06-24T05:04:20;92130.88;;;19.01;75.40
39455;BME280;25155;41.890;23.446;2023-06-24T05:06:47;92141.16;;;19.03;75.82
39455;BME280;25155;41.890;23.446;2023-06-24T05:09:14;92142.25;;;19.02;76.79
39455;BME280;25155;41.890;23.446;2023-06-24T05:11:43;92132.63;;;19.06;76.61
39455;BME280;25155;41.890;23.446;2023-06-24T05:14:10;92144.59;;;19.12;76.85
39455;BME280;25155;41.890;23.446;2023-06-24T05:16:37;92145.84;;;19.14;76.94
39455;BME280;25155;41.890;23.446;2023-06-24T05:19:04;92141.19;;;19.20;76.76
39455;BME280;25155;41.890;23.446;2023-06-24T05:21:32;92145.97;;;19.18;77.81
39455;BME280;25155;41.890;23.446;2023-06-24T05:23:59;92153.44;;;19.16;77.42
39455;BME280;25155;41.890;23.446;2023-06-24T05:26:26;92148.16;;;19.16;77.72
39455;BME280;25155;41.890;23.446;2023-06-24T05:28:55;92155.94;;;19.21;77.30
39455;BME280;25155;41.890;23.446;2023-06-24T05:31:22;92148.19;;;19.33;77.38
39455;BME280;25155;41.890;23.446;2023-06-24T05:33:50;92144.31;;;19.40;77.29
39455;BME280;25155;41.890;23.446;2023-06-24T05:36:17;92147.09;;;19.43;77.40
39455;BME280;25155;41.890;23.446;2023-06-24T05:38:44;92151.63;;;19.51;77.31
39455;BME280;25155;41.890;23.446;2023-06-24T05:41:11;92150.53;;;19.61;77.01
39455;BME280;25155;41.890;23.446;2023-06-24T05:43:38;92154.69;;;19.62;76.72
39455;BME280;25155;41.890;23.446;2023-06-24T05:46:07;92148.50;;;19.58;77.39
39455;BME280;25155;41.890;23.446;2023-06-24T05:48:34;92137.91;;;19.58;77.36
39455;BME280;25155;41.890;23.446;2023-06-24T05:51:01;92149.72;;;19.69;77.23
39455;BME280;25155;41.890;23.446;2023-06-24T05:53:29;92150.06;;;19.77;77.13
39455;BME280;25155;41.890;23.446;2023-06-24T05:55:56;92135.84;;;19.90;76.61
39455;BME280;25155;41.890;23.446;2023-06-24T05:58:23;92139.09;;;19.96;77.07
39455;BME280;25155;41.890;23.446;2023-06-24T06:00:50;92138.63;;;20.02;77.00
39455;BME280;25155;41.890;23.446;2023-06-24T06:03:19;92131.63;;;20.06;76.71
39455;BME280;25155;41.890;23.446;2023-06-24T06:05:46;92136.56;;;20.17;76.50
39455;BME280;25155;41.890;23.446;2023-06-24T06:08:13;92136.84;;;20.24;76.96
39455;BME280;25155;41.890;23.446;2023-06-24T06:10:40;92135.41;;;20.35;77.45
39455;BME280;25155;41.890;23.446;2023-06-24T06:13:08;92128.03;;;20.50;78.13
39455;BME280;25155;41.890;23.446;2023-06-24T06:15:35;92128.91;;;20.62;77.74
39455;BME280;25155;41.890;23.446;2023-06-24T06:18:02;92127.59;;;20.77;78.25
39455;BME280;25155;41.890;23.446;2023-06-24T06:20:30;92121.16;;;20.87;77.77
39455;BME280;25155;41.890;23.446;2023-06-24T06:22:58;92119.84;;;20.93;77.68
39455;BME280;25155;41.890;23.446;2023-06-24T06:25:25;92120.16;;;21.00;76.27
39455;BME280;25155;41.890;23.446;2023-06-24T06:27:52;92115.41;;;21.06;75.11
39455;BME280;25155;41.890;23.446;2023-06-24T06:30:19;92109.16;;;21.11;75.75
39455;BME280;25155;41.890;23.446;2023-06-24T06:32:46;92114.25;;;21.16;75.96
39455;BME280;25155;41.890;23.446;2023-06-24T06:35:13;92107.34;;;21.24;77.61
39455;BME280;25155;41.890;23.446;2023-06-24T06:37:42;92111.31;;;21.30;76.67
39455;BME280;25155;41.890;23.446;2023-06-24T06:40:10;92105.50;;;21.36;75.72
39455;BME280;25155;41.890;23.446;2023-06-24T06:42:37;92107.50;;;21.48;75.56
39455;BME280;25155;41.890;23.446;2023-06-24T06:45:05;92109.72;;;21.59;75.48
39455;BME280;25155;41.890;23.446;2023-06-24T06:47:32;92099.69;;;21.64;74.62
39455;BME280;25155;41.890;23.446;2023-06-24T06:49:59;92099.94;;;21.71;73.80
39455;BME280;25155;41.890;23.446;2023-06-24T06:52:26;92095.63;;;21.79;73.01
39455;BME280;25155;41.890;23.446;2023-06-24T06:54:55;92086.34;;;21.85;71.97
39455;BME280;25155;41.890;23.446;2023-06-24T06:57:24;92094.56;;;21.92;71.49
39455;BME280;25155;41.890;23.446;2023-06-24T06:59:51;92101.97;;;21.99;71.12
39455;BME280;25155;41.890;23.446;2023-06-24T07:02:18;92103.31;;;22.05;70.00
39455;BME280;25155;41.890;23.446;2023-06-24T07:04:45;92097.25;;;22.17;69.93
39455;BME280;25155;41.890;23.446;2023-06-24T07:07:14;92088.69;;;22.33;69.64
39455;BME280;25155;41.890;23.446;2023-06-24T07:09:41;92087.91;;;22.44;70.27
39455;BME280;25155;41.890;23.446;2023-06-24T07:12:10;92084.38;;;22.53;69.28
39455;BME280;25155;41.890;23.446;2023-06-24T07:14:39;92096.06;;;22.64;68.95
39455;BME280;25155;41.890;23.446;2023-06-24T07:17:07;92091.75;;;22.72;67.85
39455;BME280;25155;41.890;23.446;2023-06-24T07:19:34;92091.97;;;22.79;68.47
39455;BME280;25155;41.890;23.446;2023-06-24T07:22:02;92089.09;;;22.84;67.03
39455;BME280;25155;41.890;23.446;2023-06-24T07:24:30;92091.31;;;22.94;67.83
39455;BME280;25155;41.890;23.446;2023-06-24T07:26:57;92082.66;;;23.10;67.52
39455;BME280;25155;41.890;23.446;2023-06-24T07:29:25;92084.94;;;23.24;67.17
39455;BME280;25155;41.890;23.446;2023-06-24T07:31:52;92088.09;;;23.42;67.03
39455;BME280;25155;41.890;23.446;2023-06-24T07:34:20;92079.81;;;23.59;67.70
39455;BME280;25155;41.890;23.446;2023-06-24T07:36:47;92074.78;;;23.70;65.35
39455;BME280;25155;41.890;23.446;2023-06-24T07:39:16;92067.06;;;23.81;67.37
39455;BME280;25155;41.890;23.446;2023-06-24T07:41:43;92077.44;;;23.98;66.31
39455;BME280;25155;41.890;23.446;2023-06-24T07:44:10;92077.19;;;24.03;63.62
39455;BME280;25155;41.890;23.446;2023-06-24T07:46:39;92069.78;;;24.12;64.83
39455;BME280;25155;41.890;23.446;2023-06-24T07:49:06;92068.50;;;24.22;62.83
39455;BME280;25155;41.890;23.446;2023-06-24T07:51:34;92066.25;;;24.24;62.32
39455;BME280;25155;41.890;23.446;2023-06-24T07:54:01;92062.38;;;24.38;62.71
39455;BME280;25155;41.890;23.446;2023-06-24T07:56:29;92066.69;;;24.42;62.64
39455;BME280;25155;41.890;23.446;2023-06-24T07:58:56;92067.72;;;24.54;62.52
39455;BME280;25155;41.890;23.446;2023-06-24T08:01:23;92063.78;;;24.63;63.23
39455;BME280;25155;41.890;23.446;2023-06-24T08:03:52;92065.97;;;24.77;63.30
39455;BME280;25155;41.890;23.446;2023-06-24T08:06:19;92062.81;;;24.88;62.25
39455;BME280;25155;41.890;23.446;2023-06-24T08:08:46;92061.84;;;24.96;61.88
39455;BME280;25155;41.890;23.446;2023-06-24T08:11:14;92062.38;;;25.05;61.08
39455;BME280;25155;41.890;23.446;2023-06-24T08:13:41;92063.81;;;25.18;62.17
39455;BME280;25155;41.890;23.446;2023-06-24T08:16:08;92069.31;;;25.26;60.93
39455;BME280;25155;41.890;23.446;2023-06-24T08:18:36;92066.81;;;25.33;60.11
39455;BME280;25155;41.890;23.446;2023-06-24T08:21:04;92059.34;;;25.42;61.12
39455;BME280;25155;41.890;23.446;2023-06-24T08:23:32;92056.59;;;25.58;61.06
39455;BME280;25155;41.890;23.446;2023-06-24T08:25:59;92057.63;;;25.73;60.42
39455;BME280;25155;41.890;23.446;2023-06-24T08:28:26;92057.75;;;25.80;59.23
39455;BME280;25155;41.890;23.446;2023-06-24T08:30:53;92056.34;;;25.86;59.45
39455;BME280;25155;41.890;23.446;2023-06-24T08:33:20;92048.91;;;25.95;59.07
39455;BME280;25155;41.890;23.446;2023-06-24T08:35:47;92051.00;;;26.06;58.80
39455;BME280;25155;41.890;23.446;2023-06-24T08:38:16;92040.53;;;26.20;59.07
39455;BME280;25155;41.890;23.446;2023-06-24T08:40:44;92046.94;;;26.39;60.66
39455;BME280;25155;41.890;23.446;2023-06-24T08:43:13;92040.81;;;26.61;60.03
39455;BME280;25155;41.890;23.446;2023-06-24T08:45:40;92041.41;;;26.78;58.88
39455;BME280;25155;41.890;23.446;2023-06-24T08:48:07;92031.28;;;26.91;56.92
39455;BME280;25155;41.890;23.446;2023-06-24T08:50:39;92036.34;;;26.99;56.73
39455;BME280;25155;41.890;23.446;2023-06-24T08:53:07;92029.66;;;27.13;55.79
39455;BME280;25155;41.890;23.446;2023-06-24T08:55:40;92023.63;;;27.19;55.36
39455;BME280;25155;41.890;23.446;2023-06-24T08:58:10;92018.09;;;27.35;56.09
39455;BME280;25155;41.890;23.446;2023-06-24T09:00:37;92020.94;;;27.50;56.62
39455;BME280;25155;41.890;23.446;2023-06-24T09:03:05;92019.59;;;27.67;54.65
39455;BME280;25155;41.890;23.446;2023-06-24T09:05:32;92007.78;;;27.71;53.59
39455;BME280;25155;41.890;23.446;2023-06-24T09:07:59;91999.44;;;27.80;54.50
39455;BME280;25155;41.890;23.446;2023-06-24T09:10:30;92002.28;;;27.94;55.16
39455;BME280;25155;41.890;23.446;2023-06-24T09:13:00;92003.16;;;28.09;54.94
39455;BME280;25155;41.890;23.446;2023-06-24T09:15:31;91995.59;;;28.19;53.02
39455;BME280;25155;41.890;23.446;2023-06-24T09:17:59;91994.16;;;28.32;53.72
39455;BME280;25155;41.890;23.446;2023-06-24T09:20:27;91988.13;;;28.46;54.30
39455;BME280;25155;41.890;23.446;2023-06-24T09:23:02;91985.91;;;28.55;52.04
39455;BME280;25155;41.890;23.446;2023-06-24T09:25:30;91990.22;;;28.67;51.91
39455;BME280;25155;41.890;23.446;2023-06-24T09:28:00;91988.75;;;28.80;53.00
39455;BME280;25155;41.890;23.446;2023-06-24T09:30:28;91984.22;;;28.92;51.48
39455;BME280;25155;41.890;23.446;2023-06-24T09:32:55;91988.47;;;29.00;48.72
39455;BME280;25155;41.890;23.446;2023-06-24T09:35:24;91990.78;;;29.01;48.83
39455;BME280;25155;41.890;23.446;2023-06-24T09:37:52;91989.25;;;29.04;47.67
39455;BME280;25155;41.890;23.446;2023-06-24T09:40:20;91994.22;;;28.98;45.13
39455;BME280;25155;41.890;23.446;2023-06-24T09:42:52;91997.66;;;29.02;45.51
39455;BME280;25155;41.890;23.446;2023-06-24T09:45:24;91996.94;;;29.13;44.51
39455;BME280;25155;41.890;23.446;2023-06-24T09:47:52;91994.63;;;29.11;39.29
39455;BME280;25155;41.890;23.446;2023-06-24T09:50:19;91997.31;;;29.11;38.92
39455;BME280;25155;41.890;23.446;2023-06-24T09:52:48;91997.75;;;29.17;40.32
39455;BME280;25155;41.890;23.446;2023-06-24T09:55:17;91992.84;;;29.30;41.83
39455;BME280;25155;41.890;23.446;2023-06-24T09:57:46;91985.56;;;29.41;38.81
39455;BME280;25155;41.890;23.446;2023-06-24T10:00:14;91979.44;;;29.37;36.75
39455;BME280;25155;41.890;23.446;2023-06-24T10:02:45;91984.06;;;29.40;37.33
39455;BME280;25155;41.890;23.446;2023-06-24T10:05:13;91977.50;;;29.41;35.76
39455;BME280;25155;41.890;23.446;2023-06-24T10:07:41;91972.94;;;29.45;36.83
39455;BME280;25155;41.890;23.446;2023-06-24T10:10:09;91974.88;;;29.48;36.96
39455;BME280;25155;41.890;23.446;2023-06-24T10:12:36;91968.38;;;29.63;39.77
39455;BME280;25155;41.890;23.446;2023-06-24T10:15:05;91951.16;;;29.83;38.79
39455;BME280;25155;41.890;23.446;2023-06-24T10:17:32;91948.47;;;29.83;35.93
39455;BME280;25155;41.890;23.446;2023-06-24T10:20:03;91946.91;;;29.85;37.31
39455;BME280;25155;41.890;23.446;2023-06-24T10:22:32;91943.47;;;29.88;35.30
39455;BME280;25155;41.890;23.446;2023-06-24T10:25:00;91933.50;;;29.96;35.64
39455;BME280;25155;41.890;23.446;2023-06-24T10:27:27;91932.31;;;30.00;32.26
39455;BME280;25155;41.890;23.446;2023-06-24T10:30:02;91932.34;;;29.93;34.49
39455;BME280;25155;41.890;23.446;2023-06-24T10:32:40;91925.78;;;29.87;32.96
39455;BME280;25155;41.890;23.446;2023-06-24T10:35:22;91921.19;;;29.95;33.79
39455;BME280;25155;41.890;23.446;2023-06-24T10:37:56;91923.50;;;30.00;33.33
39455;BME280;25155;41.890;23.446;2023-06-24T10:40:37;91904.69;;;29.93;32.53
39455;BME280;25155;41.890;23.446;2023-06-24T10:43:27;91900.44;;;29.92;32.74
39455;BME280;25155;41.890;23.446;2023-06-24T10:45:56;91901.22;;;30.14;33.96
39455;BME280;25155;41.890;23.446;2023-06-24T10:48:24;91891.97;;;30.29;34.54
39455;BME280;25155;41.890;23.446;2023-06-24T10:50:52;91879.28;;;30.48;34.58
39455;BME280;25155;41.890;23.446;2023-06-24T10:53:21;91884.22;;;30.60;35.03
39455;BME280;25155;41.890;23.446;2023-06-24T10:55:49;91894.22;;;30.67;38.87
39455;BME280;25155;41.890;23.446;2023-06-24T10:58:16;91898.88;;;30.56;40.21
39455;BME280;25155;41.890;23.446;2023-06-24T11:00:43;91884.28;;;30.42;38.92
39455;BME280;25155;41.890;23.446;2023-06-24T11:03:13;91894.25;;;30.56;41.41
39455;BME280;25155;41.890;23.446;2023-06-24T11:05:41;91897.31;;;30.65;37.89
39455;BME280;25155;41.890;23.446;2023-06-24T11:08:10;91883.78;;;30.80;39.30
39455;BME280;25155;41.890;23.446;2023-06-24T11:10:44;91878.78;;;30.85;39.41
39455;BME280;25155;41.890;23.446;2023-06-24T11:13:11;91881.50;;;30.82;38.70
39455;BME280;25155;41.890;23.446;2023-06-24T11:15:39;91884.16;;;30.78;40.44
39455;BME280;25155;41.890;23.446;2023-06-24T11:18:08;91881.06;;;30.83;41.06
39455;BME280;25155;41.890;23.446;2023-06-24T11:20:36;91871.81;;;30.88;41.26
39455;BME280;25155;41.890;23.446;2023-06-24T11:23:07;91868.34;;;30.98;40.50
39455;BME280;25155;41.890;23.446;2023-06-24T11:25:40;91868.69;;;31.07;39.70
39455;BME280;25155;41.890;23.446;2023-06-24T11:28:15;91862.88;;;31.13;38.22
39455;BME280;25155;41.890;23.446;2023-06-24T11:30:42;91854.50;;;31.03;37.83
39455;BME280;25155;41.890;23.446;2023-06-24T11:33:09;91853.34;;;30.94;37.75
39455;BME280;25155;41.890;23.446;2023-06-24T11:35:36;91848.81;;;30.76;38.64
39455;BME280;25155;41.890;23.446;2023-06-24T11:38:03;91853.47;;;30.65;39.71
39455;BME280;25155;41.890;23.446;2023-06-24T11:40:31;91855.84;;;30.41;40.20
39455;BME280;25155;41.890;23.446;2023-06-24T11:43:01;91850.13;;;30.14;41.33
39455;BME280;25155;41.890;23.446;2023-06-24T11:45:29;91836.69;;;29.99;42.11
39455;BME280;25155;41.890;23.446;2023-06-24T11:48:02;91830.19;;;29.90;41.74
39455;BME280;25155;41.890;23.446;2023-06-24T11:50:35;91825.94;;;29.85;42.43
39455;BME280;25155;41.890;23.446;2023-06-24T11:53:29;91823.63;;;29.62;42.76
39455;BME280;25155;41.890;23.446;2023-06-24T11:55:57;91827.09;;;29.66;42.99
39455;BME280;25155;41.890;23.446;2023-06-24T11:58:25;91833.59;;;29.72;43.37
39455;BME280;25155;41.890;23.446;2023-06-24T12:00:53;91832.47;;;29.77;42.75
39455;BME280;25155;41.890;23.446;2023-06-24T12:03:23;91828.25;;;29.83;43.64
39455;BME280;25155;41.890;23.446;2023-06-24T12:05:51;91825.16;;;29.95;44.00
39455;BME280;25155;41.890;23.446;2023-06-24T12:08:18;91824.38;;;30.02;44.49
39455;BME280;25155;41.890;23.446;2023-06-24T12:10:45;91843.59;;;30.08;44.83
39455;BME280;25155;41.890;23.446;2023-06-24T12:13:12;91865.50;;;30.03;44.03
39455;BME280;25155;41.890;23.446;2023-06-24T12:15:42;91852.84;;;29.99;44.19
39455;BME280;25155;41.890;23.446;2023-06-24T12:18:09;91833.22;;;29.95;44.67
39455;BME280;25155;41.890;23.446;2023-06-24T12:20:37;91829.41;;;29.93;44.66
39455;BME280;25155;41.890;23.446;2023-06-24T12:23:04;91832.50;;;29.88;44.82
39455;BME280;25155;41.890;23.446;2023-06-24T12:25:31;91840.53;;;29.77;44.50
39455;BME280;25155;41.890;23.446;2023-06-24T12:27:58;91854.34;;;29.72;45.24
39455;BME280;25155;41.890;23.446;2023-06-24T12:30:26;91852.81;;;29.67;44.88
39455;BME280;25155;41.890;23.446;2023-06-24T12:32:54;91860.13;;;29.59;44.87
39455;BME280;25155;41.890;23.446;2023-06-24T12:35:22;91861.25;;;29.58;44.71
39455;BME280;25155;41.890;23.446;2023-06-24T12:37:50;91860.47;;;29.51;43.79
39455;BME280;25155;41.890;23.446;2023-06-24T12:40:18;91857.41;;;29.38;43.92
39455;BME280;25155;41.890;23.446;2023-06-24T12:42:45;91865.81;;;29.25;43.94
39455;BME280;25155;41.890;23.446;2023-06-24T12:45:12;91865.75;;;29.11;43.77
39455;BME280;25155;41.890;23.446;2023-06-24T12:47:39;91859.19;;;28.98;43.98
39455;BME280;25155;41.890;23.446;2023-06-24T12:50:09;91837.25;;;28.67;45.23
39455;BME280;25155;41.890;23.446;2023-06-24T12:52:36;91814.06;;;28.30;47.80
39455;BME280;25155;41.890;23.446;2023-06-24T12:55:05;91800.50;;;27.94;48.51
39455;BME280;25155;41.890;23.446;2023-06-24T12:57:33;91825.31;;;27.87;49.07
39455;BME280;25155;41.890;23.446;2023-06-24T13:00:00;91852.91;;;27.91;48.78
39455;BME280;25155;41.890;23.446;2023-06-24T13:02:27;91880.13;;;27.97;49.17